BTA weather

Bertoua Airport
Bertoua, East Region, Cameroon

Public forecast

Using degrees Celsius for public forecast. Weather courtesy of forecast.io.

Current aviation weather report (METAR) for Bertoua Airport

Report is more than 6 hours old.

Retrieved 2019/01/28 10:00 UTC (1 year ago):

FKKO 281000Z 320//KT 5000 BKN015 27/22 Q1013

Aviation forecast (TAF) for Bertoua Airport

Forecast is more than 12 hours old.

Retrieved 2018/07/18 08:00 UTC (2 years ago):

TAF FKKO 180730Z 1808/1818 VRB05KT 4000 BR OVC004 BKN008 BECMG 1808/1809 9999 NSW BKN012 TEMPO 1213/1218 4000 TSRA BKN009 SCT023CB